createdAt,value
2019-04-29T00:01:22.820Z,4.10
2019-04-29T00:03:51.617Z,3.53
2019-04-29T00:06:20.473Z,3.30
2019-04-29T00:08:49.295Z,3.33
2019-04-29T00:11:18.127Z,3.57
2019-04-29T00:13:46.958Z,3.40
2019-04-29T00:16:21.709Z,3.07
2019-04-29T00:18:53.376Z,3.30
2019-04-29T00:21:22.950Z,3.17
2019-04-29T00:24:03.301Z,3.40
2019-04-29T00:26:21.377Z,3.50
2019-04-29T00:28:50.489Z,3.27
2019-04-29T00:31:19.050Z,3.20
2019-04-29T00:33:48.633Z,3.03
2019-04-29T00:36:17.480Z,3.80
2019-04-29T00:38:51.169Z,3.40
2019-04-29T00:41:20.914Z,3.30
2019-04-29T00:43:49.743Z,3.77
2019-04-29T00:46:18.587Z,3.20
2019-04-29T00:48:47.438Z,3.67
2019-04-29T00:51:16.293Z,3.30
2019-04-29T00:53:45.133Z,3.20
2019-04-29T00:56:13.971Z,3.30
2019-04-29T00:58:42.796Z,3.20
2019-04-29T01:01:12.384Z,2.23
2019-04-29T01:03:41.384Z,2.83
2019-04-29T01:06:10.693Z,2.90
2019-04-29T01:08:40.272Z,2.60
2019-04-29T01:11:09.104Z,2.70
2019-04-29T01:13:37.950Z,2.67
2019-04-29T01:16:06.774Z,2.80
2019-04-29T01:18:36.353Z,2.80
2019-04-29T01:21:05.195Z,2.60
2019-04-29T01:23:34.027Z,3.00
2019-04-29T01:26:03.628Z,3.13
2019-04-29T01:28:33.235Z,2.80
2019-04-29T01:31:02.081Z,3.00
2019-04-29T01:33:30.923Z,3.00
2019-04-29T01:36:02.185Z,3.10
2019-04-29T01:38:31.769Z,2.90
2019-04-29T01:41:02.570Z,2.97
2019-04-29T01:43:37.015Z,3.00
2019-04-29T01:46:06.594Z,3.10
2019-04-29T01:48:35.437Z,2.97
2019-04-29T01:51:04.268Z,3.10
2019-04-29T01:53:33.104Z,3.23
2019-04-29T01:56:01.966Z,2.90
2019-04-29T01:58:30.800Z,3.50
2019-04-29T02:01:00.369Z,3.40
2019-04-29T02:03:29.210Z,3.70
2019-04-29T02:05:58.057Z,3.37
2019-04-29T02:08:26.882Z,3.07
2019-04-29T02:10:56.469Z,3.57
2019-04-29T02:13:26.062Z,4.17
2019-04-29T02:15:54.903Z,4.77
2019-04-29T02:18:23.739Z,8.47
2019-04-29T02:20:52.588Z,8.63
2019-04-29T02:23:21.529Z,9.53
2019-04-29T02:25:50.371Z,9.80
2019-04-29T02:28:19.236Z,10.90
2019-04-29T02:30:49.008Z,12.90
2019-04-29T02:33:17.843Z,12.93
2019-04-29T02:35:46.702Z,11.77
2019-04-29T02:38:15.540Z,10.87
2019-04-29T02:40:49.835Z,15.27
2019-04-29T02:43:19.431Z,13.50
2019-04-29T02:45:48.287Z,14.47
2019-04-29T02:48:17.728Z,11.20
2019-04-29T02:50:48.001Z,13.20
2019-04-29T02:53:16.833Z,12.53
2019-04-29T02:55:46.422Z,12.03
2019-04-29T02:58:15.272Z,11.67
2019-04-29T03:00:49.551Z,11.90
2019-04-29T03:03:22.212Z,11.97
2019-04-29T03:05:51.846Z,13.27
2019-04-29T03:08:20.664Z,10.77
2019-04-29T03:10:49.526Z,12.95
2019-04-29T03:13:18.428Z,10.93
2019-04-29T03:15:47.230Z,11.17
2019-04-29T03:18:16.077Z,10.23
2019-04-29T03:20:44.911Z,10.73
2019-04-29T03:23:13.748Z,11.30
2019-04-29T03:25:43.310Z,9.20
2019-04-29T03:28:12.160Z,10.37
2019-04-29T03:30:41.007Z,10.30
2019-04-29T03:33:09.849Z,9.23
2019-04-29T03:35:38.722Z,9.20
2019-04-29T03:38:08.288Z,8.47
2019-04-29T03:40:37.104Z,9.63
2019-04-29T03:43:06.693Z,8.17
2019-04-29T03:45:35.524Z,8.38
2019-04-29T03:48:04.372Z,7.50
2019-04-29T03:50:33.207Z,6.97
2019-04-29T03:53:02.064Z,6.27
2019-04-29T03:55:40.111Z,5.53
2019-04-29T03:57:59.755Z,5.07
2019-04-29T04:00:29.421Z,4.80
2019-04-29T04:02:58.271Z,4.33
2019-04-29T04:05:31.890Z,4.30
2019-04-29T04:08:02.651Z,4.60
2019-04-29T04:10:31.478Z,4.17
2019-04-29T04:13:00.311Z,4.27
2019-04-29T04:15:29.161Z,4.70
2019-04-29T04:18:01.056Z,4.10
2019-04-29T04:20:29.854Z,4.53
2019-04-29T04:22:58.689Z,4.50
2019-04-29T04:25:28.284Z,4.30
2019-04-29T04:27:57.860Z,4.90
2019-04-29T04:30:26.688Z,4.70
2019-04-29T04:32:55.528Z,5.10
2019-04-29T04:35:24.387Z,4.80
2019-04-29T04:37:54.003Z,4.47
2019-04-29T04:40:23.533Z,5.30
2019-04-29T04:42:52.376Z,6.73
2019-04-29T04:45:21.231Z,8.90
2019-04-29T04:47:50.059Z,6.97
2019-04-29T04:50:18.900Z,5.90
2019-04-29T04:52:47.731Z,5.47
2019-04-29T04:55:16.568Z,4.90
2019-04-29T04:57:45.440Z,5.43
2019-04-29T05:00:14.288Z,5.60
2019-04-29T05:02:43.122Z,4.40
2019-04-29T05:05:11.944Z,5.60
2019-04-29T05:07:40.781Z,5.57
2019-04-29T05:10:09.638Z,4.90
2019-04-29T05:12:38.485Z,5.23
2019-04-29T05:15:07.327Z,5.28
2019-04-29T05:17:36.912Z,5.10
2019-04-29T05:20:06.687Z,5.00
2019-04-29T05:22:35.532Z,5.00
2019-04-29T05:25:06.058Z,4.97
2019-04-29T05:27:34.907Z,5.20
2019-04-29T05:30:03.772Z,5.43
2019-04-29T05:32:32.592Z,5.95
2019-04-29T05:35:02.172Z,5.30
2019-04-29T05:37:31.103Z,5.70
2019-04-29T05:39:59.942Z,5.43
2019-04-29T05:42:28.777Z,5.00
2019-04-29T05:44:57.597Z,4.70
2019-04-29T05:47:26.445Z,5.40
2019-04-29T05:50:00.687Z,5.10
2019-04-29T05:52:30.473Z,5.40
2019-04-29T05:55:01.473Z,5.70
2019-04-29T05:57:27.963Z,5.93
2019-04-29T05:59:56.799Z,6.20
2019-04-29T06:02:33.550Z,6.27
2019-04-29T06:04:55.237Z,5.00
2019-04-29T06:07:26.737Z,5.20
2019-04-29T06:09:52.997Z,5.40
2019-04-29T06:12:21.849Z,5.80
2019-04-29T06:14:50.692Z,5.70
2019-04-29T06:17:19.536Z,5.60
2019-04-29T06:19:48.371Z,4.73
2019-04-29T06:22:17.212Z,4.60
2019-04-29T06:24:46.083Z,5.50
2019-04-29T06:27:14.889Z,5.73
2019-04-29T06:29:43.741Z,5.50
2019-04-29T06:32:12.579Z,5.20
2019-04-29T06:34:41.812Z,5.80
2019-04-29T06:37:10.295Z,5.23
2019-04-29T06:39:39.097Z,5.10
2019-04-29T06:42:08.679Z,4.83
2019-04-29T06:44:37.523Z,17.87
2019-04-29T06:47:06.365Z,48.90
2019-04-29T06:49:35.209Z,16.03
2019-04-29T06:52:04.053Z,6.40
2019-04-29T06:54:32.891Z,5.40
2019-04-29T06:57:01.739Z,5.43
2019-04-29T06:59:31.318Z,9.27
2019-04-29T07:02:00.142Z,9.10
2019-04-29T07:04:30.595Z,7.83
2019-04-29T07:06:58.592Z,5.50
2019-04-29T07:09:27.438Z,5.40
2019-04-29T07:12:01.436Z,5.80
2019-04-29T07:14:28.346Z,5.10
2019-04-29T07:16:53.989Z,5.13
2019-04-29T07:19:26.717Z,5.63
2019-04-29T07:21:54.959Z,5.82
2019-04-29T07:24:21.287Z,5.40
2019-04-29T07:26:50.855Z,5.50
2019-04-29T07:29:20.243Z,9.90
2019-04-29T07:31:48.557Z,7.30
2019-04-29T07:34:18.132Z,5.43
2019-04-29T07:36:46.980Z,5.82
2019-04-29T07:39:15.805Z,5.80
2019-04-29T07:41:44.675Z,6.20
2019-04-29T07:44:13.688Z,5.40
2019-04-29T07:46:56.070Z,5.87
2019-04-29T07:49:12.820Z,5.30
2019-04-29T07:51:40.901Z,6.03
2019-04-29T07:54:11.031Z,6.50
2019-04-29T07:56:42.361Z,5.70
2019-04-29T07:59:07.264Z,6.70
2019-04-29T08:01:36.697Z,5.90
2019-04-29T08:04:05.537Z,5.97
2019-04-29T08:06:38.350Z,5.43
2019-04-29T08:09:07.781Z,5.80
2019-04-29T08:11:32.087Z,5.70
2019-04-29T08:14:00.915Z,5.90
2019-04-29T08:16:30.501Z,5.40
2019-04-29T08:18:59.332Z,5.30
2019-04-29T08:21:40.974Z,5.10
2019-04-29T08:24:11.549Z,5.10
2019-04-29T08:26:47.093Z,5.60
2019-04-29T08:29:08.199Z,5.13
2019-04-29T08:31:37.789Z,5.17
2019-04-29T08:34:06.641Z,4.80
2019-04-29T08:36:35.488Z,5.60
2019-04-29T08:39:08.843Z,5.27
2019-04-29T08:41:33.167Z,5.27
2019-04-29T08:44:16.481Z,5.20
2019-04-29T08:46:39.313Z,5.70
2019-04-29T08:49:11.476Z,4.93
2019-04-29T08:51:37.738Z,5.10
2019-04-29T08:54:06.605Z,5.23
2019-04-29T08:56:35.479Z,5.50
2019-04-29T08:59:04.307Z,5.03
2019-04-29T09:01:34.111Z,4.80
2019-04-29T09:04:02.007Z,4.73
2019-04-29T09:06:32.562Z,5.10
2019-04-29T09:09:00.504Z,5.20
2019-04-29T09:11:29.316Z,5.85
2019-04-29T09:13:58.163Z,5.57
2019-04-29T09:16:27.024Z,5.70
2019-04-29T09:18:55.872Z,4.83
2019-04-29T09:21:24.713Z,5.07
2019-04-29T09:23:53.569Z,5.50
2019-04-29T09:26:35.650Z,5.50
2019-04-29T09:29:05.561Z,5.87
2019-04-29T09:31:34.106Z,6.83
2019-04-29T09:34:06.863Z,6.17
2019-04-29T09:36:31.863Z,6.77
2019-04-29T09:39:00.702Z,7.05
2019-04-29T09:41:30.520Z,6.53
2019-04-29T09:44:05.416Z,6.77
2019-04-29T09:46:34.572Z,6.80
2019-04-29T09:49:02.386Z,7.70
2019-04-29T09:51:31.220Z,6.10
2019-04-29T09:54:00.078Z,6.50
2019-04-29T09:56:28.966Z,6.90
2019-04-29T09:59:03.348Z,6.67
2019-04-29T10:01:33.110Z,7.32
2019-04-29T10:04:01.967Z,6.40
2019-04-29T10:06:30.837Z,5.97
2019-04-29T10:08:59.755Z,6.17
2019-04-29T10:11:28.567Z,6.47
2019-04-29T10:13:57.425Z,6.20
2019-04-29T10:16:36.039Z,5.83
2019-04-29T10:19:05.292Z,5.50
2019-04-29T10:21:29.748Z,5.43
2019-04-29T10:23:58.624Z,6.60
2019-04-29T10:26:28.237Z,5.80
2019-04-29T10:29:00.978Z,6.23
2019-04-29T10:31:29.848Z,6.07
2019-04-29T10:33:58.700Z,6.68
2019-04-29T10:36:27.569Z,5.97
2019-04-29T10:38:57.178Z,6.10
2019-04-29T10:41:26.797Z,6.37
2019-04-29T10:43:55.748Z,5.67
2019-04-29T10:46:31.137Z,6.13
2019-04-29T10:49:03.817Z,5.60
2019-04-29T10:51:30.158Z,5.97
2019-04-29T10:53:59.021Z,6.73
2019-04-29T10:56:28.650Z,6.20
2019-04-29T10:58:57.524Z,7.20
2019-04-29T11:01:31.180Z,7.22
2019-04-29T11:04:00.767Z,6.13
2019-04-29T11:06:31.287Z,6.50
2019-04-29T11:09:03.178Z,6.73
2019-04-29T11:11:32.055Z,7.00
2019-04-29T11:14:01.571Z,6.63
2019-04-29T11:16:46.111Z,6.60
2019-04-29T11:19:00.118Z,6.97
2019-04-29T11:21:29.532Z,6.83
2019-04-29T11:23:56.580Z,7.03
2019-04-29T11:26:30.832Z,7.77
2019-04-29T11:28:59.714Z,6.87
2019-04-29T11:31:28.574Z,6.97
2019-04-29T11:33:58.892Z,6.00
2019-04-29T11:36:27.764Z,6.37
2019-04-29T11:38:56.683Z,5.80
2019-04-29T11:41:25.564Z,5.93
2019-04-29T11:43:54.405Z,6.53
2019-04-29T11:46:23.304Z,6.23
2019-04-29T11:48:52.125Z,6.03
2019-04-29T11:51:22.758Z,5.80
2019-04-29T11:53:51.626Z,4.23
2019-04-29T11:56:21.239Z,3.27
2019-04-29T11:58:56.479Z,5.12
2019-04-29T12:01:37.837Z,3.80
2019-04-29T12:03:56.719Z,4.13
2019-04-29T12:06:23.110Z,3.37
2019-04-29T12:08:53.385Z,3.40
2019-04-29T12:11:20.878Z,3.67
2019-04-29T12:13:59.038Z,3.33
2019-04-29T12:16:26.375Z,4.10
2019-04-29T12:18:53.832Z,3.33
2019-04-29T12:21:26.464Z,2.77
2019-04-29T12:23:55.318Z,2.90
2019-04-29T12:26:24.914Z,2.60
2019-04-29T12:28:53.813Z,2.60
2019-04-29T12:31:22.614Z,2.70
2019-04-29T12:33:54.317Z,2.80
2019-04-29T12:36:23.157Z,2.30
2019-04-29T12:38:57.410Z,1.97
2019-04-29T12:41:30.269Z,2.13
2019-04-29T12:43:59.912Z,2.27
2019-04-29T12:46:29.472Z,2.30
2019-04-29T12:48:58.359Z,1.90
2019-04-29T12:51:27.214Z,2.20
2019-04-29T12:53:56.062Z,2.10
2019-04-29T12:56:26.169Z,2.35
2019-04-29T12:58:55.160Z,2.20
2019-04-29T13:01:49.907Z,1.70
2019-04-29T13:03:54.419Z,2.07
2019-04-29T13:06:28.369Z,2.20
2019-04-29T13:08:52.922Z,2.23
2019-04-29T13:11:35.972Z,2.40
2019-04-29T13:13:51.281Z,2.07
2019-04-29T13:16:20.590Z,2.10
2019-04-29T13:18:53.915Z,2.33
2019-04-29T13:21:18.071Z,2.47
2019-04-29T13:23:59.057Z,2.70
2019-04-29T13:26:27.374Z,2.60
2019-04-29T13:28:58.929Z,2.30
2019-04-29T13:31:13.504Z,2.60
2019-04-29T13:33:45.960Z,2.60
2019-04-29T13:36:11.255Z,2.30
2019-04-29T13:38:40.164Z,2.53
2019-04-29T13:41:13.481Z,2.50
2019-04-29T13:43:37.812Z,2.23
2019-04-29T13:46:08.596Z,2.40
2019-04-29T13:48:55.297Z,2.00
2019-04-29T13:51:12.584Z,2.13
2019-04-29T13:53:41.418Z,2.17
2019-04-29T13:56:11.985Z,1.90
2019-04-29T13:58:39.157Z,2.23
2019-04-29T14:01:21.117Z,2.20
2019-04-29T14:03:37.676Z,2.40
2019-04-29T14:06:06.548Z,2.58
2019-04-29T14:08:36.192Z,2.30
2019-04-29T14:11:05.047Z,2.13
2019-04-29T14:13:33.915Z,1.83
2019-04-29T14:16:02.788Z,2.00
2019-04-29T14:18:34.956Z,2.25
2019-04-29T14:21:00.502Z,2.05
2019-04-29T14:23:29.360Z,1.90
2019-04-29T14:25:58.222Z,2.17
2019-04-29T14:28:27.083Z,1.90
2019-04-29T14:30:56.083Z,1.83
2019-04-29T14:33:26.129Z,1.73
2019-04-29T14:35:54.448Z,1.83
2019-04-29T14:38:24.418Z,1.90
2019-04-29T14:40:52.200Z,1.87
2019-04-29T14:43:31.309Z,1.67
2019-04-29T14:45:55.360Z,1.60
2019-04-29T14:48:26.146Z,1.63
2019-04-29T14:50:56.101Z,1.90
2019-04-29T14:53:26.021Z,1.50
2019-04-29T14:55:52.722Z,1.20
2019-04-29T14:58:21.576Z,1.40
2019-04-29T15:00:50.466Z,1.40
2019-04-29T15:03:19.323Z,1.30
2019-04-29T15:05:48.341Z,1.57
2019-04-29T15:08:17.055Z,1.40
2019-04-29T15:10:45.951Z,1.87
2019-04-29T15:13:21.242Z,1.47
2019-04-29T15:15:45.398Z,2.00
2019-04-29T15:18:18.711Z,1.83
2019-04-29T15:20:44.966Z,1.80
2019-04-29T15:23:27.668Z,1.70
2019-04-29T15:25:42.679Z,1.83
2019-04-29T15:28:11.608Z,1.80
2019-04-29T15:30:40.436Z,1.67
2019-04-29T15:33:09.334Z,2.10
2019-04-29T15:35:38.887Z,2.13
2019-04-29T15:38:07.793Z,2.00
2019-04-29T15:40:42.826Z,1.80
2019-04-29T15:43:05.475Z,2.17
2019-04-29T15:45:34.336Z,2.73
2019-04-29T15:48:03.929Z,2.37
2019-04-29T15:50:36.978Z,2.00
2019-04-29T15:53:02.971Z,1.57
2019-04-29T15:55:30.481Z,1.93
2019-04-29T15:57:59.345Z,2.20
2019-04-29T16:00:36.647Z,2.60
2019-04-29T16:02:57.095Z,3.53
2019-04-29T16:05:26.657Z,4.00
2019-04-29T16:07:57.278Z,6.23
2019-04-29T16:10:30.848Z,6.97
2019-04-29T16:13:01.677Z,9.17
2019-04-29T16:15:30.504Z,9.20
2019-04-29T16:17:59.390Z,5.95
2019-04-29T16:20:28.268Z,4.43
2019-04-29T16:23:00.672Z,4.30
2019-04-29T16:25:25.992Z,5.00
2019-04-29T16:27:54.856Z,4.30
2019-04-29T16:30:26.097Z,4.67
2019-04-29T16:32:52.560Z,4.17
2019-04-29T16:35:23.642Z,4.33
2019-04-29T16:37:50.270Z,4.03
2019-04-29T16:40:19.861Z,3.90
2019-04-29T16:42:52.489Z,4.00
2019-04-29T16:45:21.344Z,5.10
2019-04-29T16:47:50.208Z,4.70
2019-04-29T16:50:19.819Z,4.83
2019-04-29T16:52:48.686Z,5.10
2019-04-29T16:55:17.591Z,5.80
2019-04-29T16:57:46.452Z,5.35
2019-04-29T17:00:15.972Z,5.37
2019-04-29T17:02:44.186Z,4.50
2019-04-29T17:05:13.030Z,4.40
2019-04-29T17:07:41.890Z,4.70
2019-04-29T17:10:16.258Z,5.07
2019-04-29T17:12:45.156Z,5.13
2019-04-29T17:15:24.271Z,5.75
2019-04-29T17:17:42.845Z,5.23
2019-04-29T17:20:12.465Z,5.30
2019-04-29T17:22:43.420Z,5.40
2019-04-29T17:25:10.214Z,6.57
2019-04-29T17:27:45.384Z,5.43
2019-04-29T17:30:19.213Z,6.23
2019-04-29T17:32:50.702Z,7.37
2019-04-29T17:35:21.830Z,6.30
2019-04-29T17:37:49.213Z,7.10
2019-04-29T17:40:19.415Z,6.73
2019-04-29T17:42:46.947Z,7.65
2019-04-29T17:45:27.154Z,6.30
2019-04-29T17:47:47.344Z,6.40
2019-04-29T17:50:13.631Z,5.53
2019-04-29T17:52:42.462Z,6.55
2019-04-29T17:55:11.342Z,5.97
2019-04-29T17:57:41.125Z,6.13
2019-04-29T18:00:12.700Z,6.10
2019-04-29T18:02:46.344Z,5.97
2019-04-29T18:05:17.030Z,5.10
2019-04-29T18:07:51.760Z,5.70
2019-04-29T18:10:17.848Z,5.10
2019-04-29T18:12:45.495Z,6.10
2019-04-29T18:15:17.686Z,6.07
2019-04-29T18:17:41.310Z,5.40
2019-04-29T18:20:17.543Z,5.33
2019-04-29T18:22:45.232Z,5.18
2019-04-29T18:25:14.096Z,5.10
2019-04-29T18:27:42.991Z,4.53
2019-04-29T18:30:12.242Z,6.22
2019-04-29T18:32:42.222Z,4.97
2019-04-29T18:35:09.547Z,4.73
2019-04-29T18:37:38.600Z,6.83
2019-04-29T18:40:07.670Z,6.57
2019-04-29T18:42:38.368Z,5.87
2019-04-29T18:45:05.392Z,6.30
2019-04-29T18:47:36.426Z,6.93
2019-04-29T18:50:04.929Z,6.70
2019-04-29T18:52:32.763Z,5.83
2019-04-29T18:55:02.334Z,6.33
2019-04-29T18:57:31.326Z,6.30
2019-04-29T19:00:09.734Z,6.87
2019-04-29T19:02:32.256Z,5.33
2019-04-29T19:04:59.147Z,5.67
2019-04-29T19:07:31.849Z,5.80
2019-04-29T19:09:56.979Z,5.40
2019-04-29T19:12:25.884Z,6.00
2019-04-29T19:14:59.705Z,5.87
2019-04-29T19:17:23.640Z,6.20
2019-04-29T19:19:52.509Z,5.43
2019-04-29T19:22:21.431Z,5.40
2019-04-29T19:24:50.298Z,5.90
2019-04-29T19:27:19.183Z,5.57
2019-04-29T19:29:48.114Z,5.40
2019-04-29T19:32:18.776Z,6.37
2019-04-29T19:34:49.805Z,5.63
2019-04-29T19:37:15.361Z,6.10
2019-04-29T19:39:44.998Z,5.70
2019-04-29T19:42:15.501Z,5.30
2019-04-29T19:44:42.510Z,6.07
2019-04-29T19:47:15.262Z,6.10
2019-04-29T19:49:44.570Z,6.53
2019-04-29T19:52:09.149Z,6.40
2019-04-29T19:54:38.025Z,6.93
2019-04-29T19:57:07.614Z,7.07
2019-04-29T19:59:36.775Z,7.83
2019-04-29T20:02:09.578Z,8.10
2019-04-29T20:04:36.570Z,8.20
2019-04-29T20:07:08.886Z,8.20
2019-04-29T20:09:37.283Z,8.90
2019-04-29T20:12:09.417Z,9.13
2019-04-29T20:14:33.995Z,10.83
2019-04-29T20:17:12.727Z,9.77
2019-04-29T20:19:35.225Z,9.90
2019-04-29T20:22:05.601Z,9.07
2019-04-29T20:24:32.769Z,9.63
2019-04-29T20:27:01.582Z,9.27
2019-04-29T20:29:33.965Z,9.37
2019-04-29T20:31:59.366Z,10.40
2019-04-29T20:34:28.492Z,10.20
2019-04-29T20:36:57.108Z,10.30
2019-04-29T20:39:26.334Z,11.50
2019-04-29T20:41:56.041Z,11.80
2019-04-29T20:44:23.737Z,13.18
2019-04-29T20:47:14.258Z,12.47
2019-04-29T20:49:21.503Z,12.03
2019-04-29T20:51:52.382Z,14.48
2019-04-29T20:54:19.699Z,12.40
2019-04-29T20:56:48.085Z,13.97
2019-04-29T20:59:16.955Z,12.90
2019-04-29T21:01:45.818Z,16.12
2019-04-29T21:04:29.781Z,14.43
2019-04-29T21:06:57.545Z,14.27
2019-04-29T21:09:12.379Z,14.20
2019-04-29T21:11:41.923Z,15.70
2019-04-29T21:14:10.778Z,18.90
2019-04-29T21:16:39.671Z,16.23
2019-04-29T21:19:08.990Z,16.47
2019-04-29T21:21:41.925Z,18.10
2019-04-29T21:24:13.629Z,19.03
2019-04-29T21:26:37.882Z,18.83
2019-04-29T21:29:05.467Z,23.07
2019-04-29T21:31:32.886Z,20.93
2019-04-29T21:34:01.757Z,21.10
2019-04-29T21:36:36.764Z,20.73
2019-04-29T21:39:06.204Z,24.40
2019-04-29T21:41:35.866Z,21.17
2019-04-29T21:44:03.683Z,20.60
2019-04-29T21:46:32.527Z,22.90
2019-04-29T21:49:06.769Z,20.27
2019-04-29T21:51:30.263Z,22.00
2019-04-29T21:53:59.129Z,21.47
2019-04-29T21:56:28.725Z,20.87
2019-04-29T21:58:57.593Z,21.97
2019-04-29T22:01:29.370Z,22.50
2019-04-29T22:03:57.712Z,25.57
2019-04-29T22:06:24.713Z,22.80
2019-04-29T22:08:54.263Z,21.83
2019-04-29T22:11:21.979Z,23.50
2019-04-29T22:13:50.845Z,21.03
2019-04-29T22:16:20.452Z,22.20
2019-04-29T22:18:52.057Z,21.27
2019-04-29T22:21:21.932Z,22.60
2019-04-29T22:23:50.922Z,23.00
2019-04-29T22:26:23.011Z,23.47
2019-04-29T22:28:46.643Z,22.87
2019-04-29T22:31:15.154Z,22.70
2019-04-29T22:33:42.522Z,24.47
2019-04-29T22:36:14.718Z,22.67
2019-04-29T22:38:43.698Z,22.17
2019-04-29T22:41:11.918Z,23.03
2019-04-29T22:43:44.617Z,25.33
2019-04-29T22:46:10.663Z,25.97
2019-04-29T22:48:40.617Z,25.20
2019-04-29T22:51:10.046Z,23.67
2019-04-29T22:53:40.079Z,25.83
2019-04-29T22:56:08.949Z,23.67
2019-04-29T22:58:35.133Z,25.37
2019-04-29T23:01:06.826Z,26.03
2019-04-29T23:03:37.614Z,25.83
2019-04-29T23:06:06.902Z,25.80
2019-04-29T23:08:36.557Z,28.90
2019-04-29T23:11:04.084Z,26.40
2019-04-29T23:13:31.166Z,25.23
2019-04-29T23:16:01.003Z,26.73
2019-04-29T23:18:28.893Z,24.67
2019-04-29T23:20:59.499Z,30.30
2019-04-29T23:23:36.398Z,29.58
2019-04-29T23:26:04.190Z,26.63
2019-04-29T23:28:45.740Z,29.57
2019-04-29T23:31:13.768Z,28.03
2019-04-29T23:33:42.609Z,30.17
2019-04-29T23:36:14.286Z,29.67
2019-04-29T23:38:42.746Z,30.90
2019-04-29T23:41:09.145Z,30.23
2019-04-29T23:43:38.038Z,28.40
2019-04-29T23:46:07.618Z,27.40
2019-04-29T23:48:39.623Z,29.30
2019-04-29T23:51:05.484Z,29.20
2019-04-29T23:53:35.129Z,27.57
2019-04-29T23:56:05.547Z,29.47
2019-04-29T23:58:37.308Z,29.37
